sensor_id;sensor_type;location;lat;lon;timestamp;pressure;altitude;pressure_sealevel;temperature;humidity
63819;BME280;49970;54.976;73.248;2023-04-29T00:00:12;100684.78;;;3.87;51.62
63819;BME280;49970;54.976;73.248;2023-04-29T00:02:38;100681.47;;;3.82;51.28
63819;BME280;49970;54.976;73.248;2023-04-29T00:05:10;100682.38;;;3.81;51.51
63819;BME280;49970;54.976;73.248;2023-04-29T00:07:36;100690.34;;;3.78;52.07
63819;BME280;49970;54.976;73.248;2023-04-29T00:10:08;100689.44;;;3.79;52.04
63819;BME280;49970;54.976;73.248;2023-04-29T00:12:40;100692.03;;;3.81;51.67
63819;BME280;49970;54.976;73.248;2023-04-29T00:15:36;100693.09;;;3.75;51.84
63819;BME280;49970;54.976;73.248;2023-04-29T00:19:28;100678.66;;;3.63;52.78
63819;BME280;49970;54.976;73.248;2023-04-29T00:23:44;100681.59;;;3.56;52.73
63819;BME280;49970;54.976;73.248;2023-04-29T00:28:00;100700.19;;;3.48;52.86
63819;BME280;49970;54.976;73.248;2023-04-29T00:35:20;100726.97;;;3.56;52.79
63819;BME280;49970;54.976;73.248;2023-04-29T00:37:47;100731.13;;;3.62;53.00
63819;BME280;49970;54.976;73.248;2023-04-29T00:40:14;100727.56;;;3.63;52.97
63819;BME280;49970;54.976;73.248;2023-04-29T00:42:41;100733.63;;;3.65;53.01
63819;BME280;49970;54.976;73.248;2023-04-29T00:45:08;100745.59;;;3.72;52.94
63819;BME280;49970;54.976;73.248;2023-04-29T00:47:37;100762.88;;;3.78;52.50
63819;BME280;49970;54.976;73.248;2023-04-29T00:50:06;100770.03;;;3.72;53.15
63819;BME280;49970;54.976;73.248;2023-04-29T00:52:33;100768.31;;;3.71;52.91
63819;BME280;49970;54.976;73.248;2023-04-29T00:55:00;100758.38;;;3.81;52.79
63819;BME280;49970;54.976;73.248;2023-04-29T00:57:27;100764.06;;;3.92;52.53
63819;BME280;49970;54.976;73.248;2023-04-29T00:59:56;100769.28;;;3.94;53.07
63819;BME280;49970;54.976;73.248;2023-04-29T01:02:23;100776.78;;;4.03;52.62
63819;BME280;49970;54.976;73.248;2023-04-29T01:04:51;100780.78;;;4.13;52.22
63819;BME280;49970;54.976;73.248;2023-04-29T01:07:33;100779.72;;;4.19;52.64
63819;BME280;49970;54.976;73.248;2023-04-29T01:10:26;100783.13;;;4.44;51.93
63819;BME280;49970;54.976;73.248;2023-04-29T01:13:17;100772.44;;;4.71;51.80
63819;BME280;49970;54.976;73.248;2023-04-29T01:16:00;100773.63;;;4.86;51.62
63819;BME280;49970;54.976;73.248;2023-04-29T01:18:40;100781.81;;;4.78;51.22
63819;BME280;49970;54.976;73.248;2023-04-29T01:21:07;100773.59;;;4.64;51.33
63819;BME280;49970;54.976;73.248;2023-04-29T01:23:34;100772.19;;;4.55;52.13
63819;BME280;49970;54.976;73.248;2023-04-29T01:26:00;100772.63;;;4.88;50.86
63819;BME280;49970;54.976;73.248;2023-04-29T01:31:40;100783.28;;;5.68;50.12
63819;BME280;49970;54.976;73.248;2023-04-29T01:34:40;100779.50;;;5.96;50.26
63819;BME280;49970;54.976;73.248;2023-04-29T01:37:16;100779.72;;;6.10;49.14
63819;BME280;49970;54.976;73.248;2023-04-29T01:40:19;100785.88;;;6.48;49.20
63819;BME280;49970;54.976;73.248;2023-04-29T01:43:14;100777.22;;;6.83;48.92
63819;BME280;49970;54.976;73.248;2023-04-29T01:45:51;100786.88;;;7.18;47.91
63819;BME280;49970;54.976;73.248;2023-04-29T01:48:19;100778.06;;;7.54;47.83
63819;BME280;49970;54.976;73.248;2023-04-29T01:50:46;100788.72;;;7.86;47.19
63819;BME280;49970;54.976;73.248;2023-04-29T01:53:15;100778.91;;;7.72;46.83
63819;BME280;49970;54.976;73.248;2023-04-29T01:55:42;100785.94;;;7.89;46.95
63819;BME280;49970;54.976;73.248;2023-04-29T01:58:26;100790.53;;;7.68;47.15
63819;BME280;49970;54.976;73.248;2023-04-29T02:00:59;100795.66;;;7.88;46.76
63819;BME280;49970;54.976;73.248;2023-04-29T02:03:28;100801.66;;;8.08;46.68
63819;BME280;49970;54.976;73.248;2023-04-29T02:05:56;100802.31;;;8.29;45.81
63819;BME280;49970;54.976;73.248;2023-04-29T02:08:23;100809.09;;;8.17;46.20
63819;BME280;49970;54.976;73.248;2023-04-29T02:10:57;100808.94;;;8.36;46.06
63819;BME280;49970;54.976;73.248;2023-04-29T02:13:32;100812.66;;;8.16;45.90
63819;BME280;49970;54.976;73.248;2023-04-29T02:16:09;100818.78;;;7.83;46.11
63819;BME280;49970;54.976;73.248;2023-04-29T02:18:38;100823.41;;;7.43;46.40
63819;BME280;49970;54.976;73.248;2023-04-29T02:21:06;100821.22;;;7.17;47.02
63819;BME280;49970;54.976;73.248;2023-04-29T02:23:37;100816.38;;;6.90;47.20
63819;BME280;49970;54.976;73.248;2023-04-29T02:26:04;100820.78;;;6.90;47.33
63819;BME280;49970;54.976;73.248;2023-04-29T02:28:41;100803.03;;;6.93;47.26
63819;BME280;49970;54.976;73.248;2023-04-29T02:31:07;100805.75;;;6.92;47.50
63819;BME280;49970;54.976;73.248;2023-04-29T02:33:33;100799.19;;;7.01;47.15
63819;BME280;49970;54.976;73.248;2023-04-29T02:36:00;100796.66;;;6.80;47.19
63819;BME280;49970;54.976;73.248;2023-04-29T02:38:26;100790.75;;;6.75;47.54
63819;BME280;49970;54.976;73.248;2023-04-29T02:40:57;100790.03;;;6.71;47.15
63819;BME280;49970;54.976;73.248;2023-04-29T02:43:24;100789.38;;;6.85;46.86
63819;BME280;49970;54.976;73.248;2023-04-29T02:45:51;100799.63;;;6.91;47.38
63819;BME280;49970;54.976;73.248;2023-04-29T02:48:17;100786.56;;;6.71;46.96
63819;BME280;49970;54.976;73.248;2023-04-29T02:50:48;100795.81;;;6.80;47.13
63819;BME280;49970;54.976;73.248;2023-04-29T02:53:15;100799.00;;;6.86;47.25
63819;BME280;49970;54.976;73.248;2023-04-29T02:55:41;100800.09;;;6.82;46.94
63819;BME280;49970;54.976;73.248;2023-04-29T02:58:09;100806.06;;;6.86;46.67
63819;BME280;49970;54.976;73.248;2023-04-29T03:00:35;100818.56;;;6.99;46.16
63819;BME280;49970;54.976;73.248;2023-04-29T03:03:02;100824.22;;;7.09;46.00
63819;BME280;49970;54.976;73.248;2023-04-29T03:05:28;100824.09;;;7.12;46.24
63819;BME280;49970;54.976;73.248;2023-04-29T03:07:54;100821.72;;;7.06;46.09
63819;BME280;49970;54.976;73.248;2023-04-29T03:10:21;100830.78;;;7.19;45.89
63819;BME280;49970;54.976;73.248;2023-04-29T03:12:47;100824.78;;;7.16;45.70
63819;BME280;49970;54.976;73.248;2023-04-29T03:15:14;100822.59;;;7.07;45.67
63819;BME280;49970;54.976;73.248;2023-04-29T03:17:46;100825.75;;;6.96;46.11
63819;BME280;49970;54.976;73.248;2023-04-29T03:20:13;100821.94;;;7.02;45.74
63819;BME280;49970;54.976;73.248;2023-04-29T03:22:44;100818.91;;;7.11;46.06
63819;BME280;49970;54.976;73.248;2023-04-29T03:25:16;100817.13;;;7.11;46.17
63819;BME280;49970;54.976;73.248;2023-04-29T03:27:42;100804.94;;;7.09;45.53
63819;BME280;49970;54.976;73.248;2023-04-29T03:30:29;100821.38;;;7.14;45.72
63819;BME280;49970;54.976;73.248;2023-04-29T03:34:20;100828.94;;;7.03;44.99
63819;BME280;49970;54.976;73.248;2023-04-29T03:38:16;100804.47;;;7.18;45.03
63819;BME280;49970;54.976;73.248;2023-04-29T03:40:44;100807.34;;;7.31;44.91
63819;BME280;49970;54.976;73.248;2023-04-29T03:43:10;100814.09;;;7.19;43.70
63819;BME280;49970;54.976;73.248;2023-04-29T03:45:38;100800.38;;;7.12;44.23
63819;BME280;49970;54.976;73.248;2023-04-29T03:48:05;100803.94;;;7.11;44.01
63819;BME280;49970;54.976;73.248;2023-04-29T03:50:34;100807.00;;;7.02;43.84
63819;BME280;49970;54.976;73.248;2023-04-29T03:53:21;100816.41;;;7.08;43.87
63819;BME280;49970;54.976;73.248;2023-04-29T03:56:56;100808.28;;;7.12;43.57
63819;BME280;49970;54.976;73.248;2023-04-29T03:59:23;100819.34;;;7.19;43.96
63819;BME280;49970;54.976;73.248;2023-04-29T04:01:52;100806.50;;;7.13;43.85
63819;BME280;49970;54.976;73.248;2023-04-29T04:04:24;100798.66;;;6.94;44.08
63819;BME280;49970;54.976;73.248;2023-04-29T04:06:51;100796.31;;;7.05;43.89
63819;BME280;49970;54.976;73.248;2023-04-29T04:09:39;100806.66;;;7.27;44.29
63819;BME280;49970;54.976;73.248;2023-04-29T04:13:31;100808.38;;;7.28;43.82
63819;BME280;49970;54.976;73.248;2023-04-29T04:17:22;100812.97;;;7.42;43.27
63819;BME280;49970;54.976;73.248;2023-04-29T04:21:13;100807.47;;;7.46;42.69
63819;BME280;49970;54.976;73.248;2023-04-29T04:25:04;100803.97;;;7.63;42.21
63819;BME280;49970;54.976;73.248;2023-04-29T04:28:55;100805.59;;;7.83;41.73
63819;BME280;49970;54.976;73.248;2023-04-29T04:31:42;100797.19;;;7.92;41.71
63819;BME280;49970;54.976;73.248;2023-04-29T04:34:09;100810.63;;;7.88;41.61
63819;BME280;49970;54.976;73.248;2023-04-29T04:36:39;100816.28;;;7.80;41.37
63819;BME280;49970;54.976;73.248;2023-04-29T04:39:07;100809.31;;;7.79;40.43
63819;BME280;49970;54.976;73.248;2023-04-29T04:41:33;100813.19;;;7.72;40.71
63819;BME280;49970;54.976;73.248;2023-04-29T04:44:02;100809.16;;;7.82;41.09
63819;BME280;49970;54.976;73.248;2023-04-29T04:46:38;100802.91;;;8.01;40.23
63819;BME280;49970;54.976;73.248;2023-04-29T04:49:14;100790.19;;;8.09;40.07
63819;BME280;49970;54.976;73.248;2023-04-29T04:51:47;100791.28;;;8.05;39.57
63819;BME280;49970;54.976;73.248;2023-04-29T04:54:14;100779.28;;;8.15;39.16
63819;BME280;49970;54.976;73.248;2023-04-29T04:56:40;100786.38;;;8.30;39.48
63819;BME280;49970;54.976;73.248;2023-04-29T04:59:06;100780.72;;;8.38;38.59
63819;BME280;49970;54.976;73.248;2023-04-29T05:01:36;100780.38;;;8.44;39.17
63819;BME280;49970;54.976;73.248;2023-04-29T05:04:07;100797.00;;;8.46;39.02
63819;BME280;49970;54.976;73.248;2023-04-29T05:06:33;100806.63;;;8.47;38.64
63819;BME280;49970;54.976;73.248;2023-04-29T05:09:00;100802.38;;;8.44;38.57
63819;BME280;49970;54.976;73.248;2023-04-29T05:11:26;100804.81;;;8.47;37.86
63819;BME280;49970;54.976;73.248;2023-04-29T05:14:18;100810.50;;;8.40;37.82
63819;BME280;49970;54.976;73.248;2023-04-29T05:16:44;100806.31;;;8.36;37.65
63819;BME280;49970;54.976;73.248;2023-04-29T05:19:12;100794.19;;;8.49;38.09
63819;BME280;49970;54.976;73.248;2023-04-29T05:21:49;100788.47;;;8.57;37.84
63819;BME280;49970;54.976;73.248;2023-04-29T05:24:17;100779.53;;;8.59;37.12
63819;BME280;49970;54.976;73.248;2023-04-29T05:26:44;100779.28;;;8.64;36.84
63819;BME280;49970;54.976;73.248;2023-04-29T05:29:19;100775.97;;;8.60;37.20
63819;BME280;49970;54.976;73.248;2023-04-29T05:35:23;100766.88;;;8.66;36.84
63819;BME280;49970;54.976;73.248;2023-04-29T05:37:50;100762.50;;;8.81;36.86
63819;BME280;49970;54.976;73.248;2023-04-29T05:40:55;100749.44;;;8.78;36.51
63819;BME280;49970;54.976;73.248;2023-04-29T05:43:45;100768.19;;;8.89;36.98
63819;BME280;49970;54.976;73.248;2023-04-29T05:46:13;100765.63;;;9.03;36.92
63819;BME280;49970;54.976;73.248;2023-04-29T05:48:39;100762.31;;;9.00;36.13
63819;BME280;49970;54.976;73.248;2023-04-29T05:51:06;100759.59;;;8.85;35.97
63819;BME280;49970;54.976;73.248;2023-04-29T05:53:32;100755.53;;;8.80;36.23
63819;BME280;49970;54.976;73.248;2023-04-29T05:55:59;100756.19;;;8.83;36.26
63819;BME280;49970;54.976;73.248;2023-04-29T05:58:35;100764.53;;;8.91;36.35
63819;BME280;49970;54.976;73.248;2023-04-29T06:01:02;100752.66;;;8.98;36.60
63819;BME280;49970;54.976;73.248;2023-04-29T06:03:38;100759.19;;;9.23;36.97
63819;BME280;49970;54.976;73.248;2023-04-29T06:06:31;100749.78;;;9.33;36.58
63819;BME280;49970;54.976;73.248;2023-04-29T06:09:10;100749.97;;;9.44;37.44
63819;BME280;49970;54.976;73.248;2023-04-29T06:11:41;100748.41;;;9.56;36.58
63819;BME280;49970;54.976;73.248;2023-04-29T06:14:07;100746.25;;;9.63;36.34
63819;BME280;49970;54.976;73.248;2023-04-29T06:16:33;100743.50;;;9.64;36.59
63819;BME280;49970;54.976;73.248;2023-04-29T06:18:59;100750.69;;;9.62;35.89
63819;BME280;49970;54.976;73.248;2023-04-29T06:21:37;100758.81;;;9.59;36.64
63819;BME280;49970;54.976;73.248;2023-04-29T06:24:03;100750.69;;;9.62;36.11
63819;BME280;49970;54.976;73.248;2023-04-29T06:26:30;100746.09;;;9.66;36.06
63819;BME280;49970;54.976;73.248;2023-04-29T06:28:58;100753.72;;;9.70;35.78
63819;BME280;49970;54.976;73.248;2023-04-29T06:31:25;100742.66;;;9.64;36.22
63819;BME280;49970;54.976;73.248;2023-04-29T06:33:54;100745.41;;;9.77;36.03
63819;BME280;49970;54.976;73.248;2023-04-29T06:36:21;100746.56;;;9.87;36.03
63819;BME280;49970;54.976;73.248;2023-04-29T06:39:21;100744.19;;;9.82;36.03
63819;BME280;49970;54.976;73.248;2023-04-29T06:42:06;100749.47;;;9.82;36.15
63819;BME280;49970;54.976;73.248;2023-04-29T06:44:44;100756.38;;;9.85;35.92
63819;BME280;49970;54.976;73.248;2023-04-29T06:47:44;100754.97;;;9.79;36.82
63819;BME280;49970;54.976;73.248;2023-04-29T06:50:12;100754.03;;;9.80;35.96
63819;BME280;49970;54.976;73.248;2023-04-29T06:52:38;100759.69;;;9.88;36.42
63819;BME280;49970;54.976;73.248;2023-04-29T06:55:25;100750.25;;;9.84;35.99
63819;BME280;49970;54.976;73.248;2023-04-29T06:59:16;100744.94;;;9.70;36.22
63819;BME280;49970;54.976;73.248;2023-04-29T07:03:07;100746.72;;;9.69;36.48
63819;BME280;49970;54.976;73.248;2023-04-29T08:32:02;100680.22;;;11.00;35.02
63819;BME280;49970;54.976;73.248;2023-04-29T08:34:28;100676.41;;;11.04;35.48
63819;BME280;49970;54.976;73.248;2023-04-29T08:36:59;100676.41;;;11.04;35.99
63819;BME280;49970;54.976;73.248;2023-04-29T08:39:27;100670.22;;;10.90;36.04
63819;BME280;49970;54.976;73.248;2023-04-29T08:41:54;100687.91;;;10.90;35.92
63819;BME280;49970;54.976;73.248;2023-04-29T08:44:32;100677.81;;;10.82;35.66
63819;BME280;49970;54.976;73.248;2023-04-29T08:46:59;100670.09;;;10.79;35.58
63819;BME280;49970;54.976;73.248;2023-04-29T08:49:29;100663.31;;;10.75;36.06
63819;BME280;49970;54.976;73.248;2023-04-29T08:51:57;100670.13;;;10.92;35.96
63819;BME280;49970;54.976;73.248;2023-04-29T08:54:30;100658.47;;;10.94;35.43
63819;BME280;49970;54.976;73.248;2023-04-29T08:56:57;100657.44;;;11.10;35.29
63819;BME280;49970;54.976;73.248;2023-04-29T08:59:24;100646.84;;;11.10;34.93
63819;BME280;49970;54.976;73.248;2023-04-29T09:01:52;100667.31;;;11.08;35.41
63819;BME280;49970;54.976;73.248;2023-04-29T09:04:40;100670.88;;;10.94;34.88
63819;BME280;49970;54.976;73.248;2023-04-29T09:07:07;100656.75;;;10.81;35.30
63819;BME280;49970;54.976;73.248;2023-04-29T09:09:36;100659.91;;;10.86;35.88
63819;BME280;49970;54.976;73.248;2023-04-29T09:12:05;100667.03;;;10.85;35.39
63819;BME280;49970;54.976;73.248;2023-04-29T09:14:32;100664.28;;;10.87;35.12
63819;BME280;49970;54.976;73.248;2023-04-29T09:16:59;100666.06;;;10.86;35.79
63819;BME280;49970;54.976;73.248;2023-04-29T09:19:29;100658.34;;;10.83;35.51
63819;BME280;49970;54.976;73.248;2023-04-29T09:21:57;100667.78;;;10.87;35.47
63819;BME280;49970;54.976;73.248;2023-04-29T09:24:27;100662.06;;;10.93;35.27
63819;BME280;49970;54.976;73.248;2023-04-29T09:26:55;100667.56;;;10.90;35.34
63819;BME280;49970;54.976;73.248;2023-04-29T09:29:21;100665.88;;;10.89;35.37
63819;BME280;49970;54.976;73.248;2023-04-29T09:31:50;100664.69;;;10.81;35.20
63819;BME280;49970;54.976;73.248;2023-04-29T09:34:33;100648.88;;;10.66;35.20
63819;BME280;49970;54.976;73.248;2023-04-29T09:37:25;100644.31;;;10.68;36.34
63819;BME280;49970;54.976;73.248;2023-04-29T09:39:53;100651.13;;;10.85;36.08
63819;BME280;49970;54.976;73.248;2023-04-29T09:42:20;100658.88;;;10.88;35.43
63819;BME280;49970;54.976;73.248;2023-04-29T09:44:46;100646.00;;;10.69;35.02
63819;BME280;49970;54.976;73.248;2023-04-29T09:47:12;100643.47;;;10.68;35.18
63819;BME280;49970;54.976;73.248;2023-04-29T09:49:41;100644.31;;;10.68;35.54
63819;BME280;49970;54.976;73.248;2023-04-29T09:52:12;100644.53;;;10.78;34.97
63819;BME280;49970;54.976;73.248;2023-04-29T09:54:40;100638.06;;;10.82;34.89
63819;BME280;49970;54.976;73.248;2023-04-29T09:57:08;100639.47;;;10.75;35.55
63819;BME280;49970;54.976;73.248;2023-04-29T09:59:36;100636.81;;;10.75;35.50
63819;BME280;49970;54.976;73.248;2023-04-29T10:02:13;100637.47;;;10.79;35.24
63819;BME280;49970;54.976;73.248;2023-04-29T10:04:53;100621.53;;;10.66;34.92
63819;BME280;49970;54.976;73.248;2023-04-29T10:07:33;100620.78;;;10.64;35.87
63819;BME280;49970;54.976;73.248;2023-04-29T10:09:59;100616.00;;;10.69;36.02
63819;BME280;49970;54.976;73.248;2023-04-29T10:12:39;100631.28;;;10.78;35.70
63819;BME280;49970;54.976;73.248;2023-04-29T10:15:37;100623.13;;;10.81;35.63
63819;BME280;49970;54.976;73.248;2023-04-29T10:18:20;100619.00;;;10.77;36.17
63819;BME280;49970;54.976;73.248;2023-04-29T10:20:48;100623.34;;;10.78;35.83
63819;BME280;49970;54.976;73.248;2023-04-29T10:23:16;100600.97;;;10.82;35.53
63819;BME280;49970;54.976;73.248;2023-04-29T10:25:45;100604.81;;;10.91;35.58
63819;BME280;49970;54.976;73.248;2023-04-29T10:28:14;100609.59;;;10.98;36.06
63819;BME280;49970;54.976;73.248;2023-04-29T10:30:43;100613.53;;;11.06;35.71
63819;BME280;49970;54.976;73.248;2023-04-29T10:33:10;100614.56;;;11.03;35.81
63819;BME280;49970;54.976;73.248;2023-04-29T10:35:37;100611.91;;;10.90;35.91
63819;BME280;49970;54.976;73.248;2023-04-29T10:38:10;100618.28;;;10.88;36.03
63819;BME280;49970;54.976;73.248;2023-04-29T10:40:49;100613.84;;;10.88;35.75
63819;BME280;49970;54.976;73.248;2023-04-29T10:43:22;100610.53;;;10.85;36.26
63819;BME280;49970;54.976;73.248;2023-04-29T10:45:49;100626.75;;;10.93;35.93
63819;BME280;49970;54.976;73.248;2023-04-29T10:48:15;100628.06;;;11.00;35.61
63819;BME280;49970;54.976;73.248;2023-04-29T10:53:18;100616.06;;;10.94;35.63
63819;BME280;49970;54.976;73.248;2023-04-29T10:55:52;100621.59;;;10.91;36.42
63819;BME280;49970;54.976;73.248;2023-04-29T10:58:41;100625.94;;;10.92;35.91
63819;BME280;49970;54.976;73.248;2023-04-29T11:01:10;100621.03;;;10.86;35.67
63819;BME280;49970;54.976;73.248;2023-04-29T11:04:01;100623.91;;;10.83;36.06
63819;BME280;49970;54.976;73.248;2023-04-29T11:09:06;100614.34;;;10.81;35.84
63819;BME280;49970;54.976;73.248;2023-04-29T11:11:43;100609.81;;;10.83;36.58
63819;BME280;49970;54.976;73.248;2023-04-29T11:14:12;100615.72;;;10.86;36.45
63819;BME280;49970;54.976;73.248;2023-04-29T11:16:53;100620.72;;;10.91;36.75
63819;BME280;49970;54.976;73.248;2023-04-29T11:19:32;100617.84;;;10.94;36.52
63819;BME280;49970;54.976;73.248;2023-04-29T11:22:09;100617.66;;;10.97;36.32
63819;BME280;49970;54.976;73.248;2023-04-29T11:25:06;100612.75;;;10.91;36.03
63819;BME280;49970;54.976;73.248;2023-04-29T11:27:39;100624.94;;;10.81;36.78
63819;BME280;49970;54.976;73.248;2023-04-29T11:30:10;100609.56;;;10.73;36.53
63819;BME280;49970;54.976;73.248;2023-04-29T11:32:40;100614.66;;;10.76;36.74
63819;BME280;49970;54.976;73.248;2023-04-29T11:37:38;100623.56;;;10.75;36.95
63819;BME280;49970;54.976;73.248;2023-04-29T11:40:15;100616.00;;;10.69;37.52
63819;BME280;49970;54.976;73.248;2023-04-29T11:42:46;100627.56;;;10.68;36.74
63819;BME280;49970;54.976;73.248;2023-04-29T11:45:22;100618.31;;;10.61;37.07
63819;BME280;49970;54.976;73.248;2023-04-29T11:47:59;100619.38;;;10.58;37.63
63819;BME280;49970;54.976;73.248;2023-04-29T11:50:26;100628.91;;;10.61;37.56
63819;BME280;49970;54.976;73.248;2023-04-29T11:52:56;100629.97;;;10.58;37.38
63819;BME280;49970;54.976;73.248;2023-04-29T11:55:32;100625.00;;;10.54;37.70
63819;BME280;49970;54.976;73.248;2023-04-29T11:57:59;100626.22;;;10.48;38.07
63819;BME280;49970;54.976;73.248;2023-04-29T12:00:25;100626.44;;;10.45;37.94
63819;BME280;49970;54.976;73.248;2023-04-29T12:02:51;100621.16;;;10.45;37.71
63819;BME280;49970;54.976;73.248;2023-04-29T12:05:20;100622.19;;;10.42;37.40
63819;BME280;49970;54.976;73.248;2023-04-29T12:07:56;100617.00;;;10.41;38.35
63819;BME280;49970;54.976;73.248;2023-04-29T12:10:26;100622.50;;;10.38;37.65
63819;BME280;49970;54.976;73.248;2023-04-29T12:12:52;100631.28;;;10.38;37.83
63819;BME280;49970;54.976;73.248;2023-04-29T12:15:21;100630.13;;;10.42;38.11
63819;BME280;49970;54.976;73.248;2023-04-29T12:17:47;100616.78;;;10.44;38.11
63819;BME280;49970;54.976;73.248;2023-04-29T12:20:14;100614.63;;;10.36;38.02
63819;BME280;49970;54.976;73.248;2023-04-29T12:22:41;100626.63;;;10.42;38.25
63819;BME280;49970;54.976;73.248;2023-04-29T12:25:09;100626.19;;;10.35;38.15
63819;BME280;49970;54.976;73.248;2023-04-29T12:27:38;100640.91;;;10.39;38.06
63819;BME280;49970;54.976;73.248;2023-04-29T12:30:08;100625.22;;;10.36;38.53
63819;BME280;49970;54.976;73.248;2023-04-29T12:32:35;100623.53;;;10.35;38.04
63819;BME280;49970;54.976;73.248;2023-04-29T12:35:01;100619.00;;;10.37;38.24
63819;BME280;49970;54.976;73.248;2023-04-29T12:37:28;100609.75;;;10.30;38.20
63819;BME280;49970;54.976;73.248;2023-04-29T12:39:54;100621.06;;;10.32;38.05
63819;BME280;49970;54.976;73.248;2023-04-29T12:42:32;100622.97;;;10.30;38.90
63819;BME280;49970;54.976;73.248;2023-04-29T12:45:01;100613.91;;;10.20;38.75
63819;BME280;49970;54.976;73.248;2023-04-29T12:47:38;100620.34;;;10.16;38.29
63819;BME280;49970;54.976;73.248;2023-04-29T12:50:05;100612.50;;;10.14;38.55
63819;BME280;49970;54.976;73.248;2023-04-29T12:52:33;100619.78;;;10.11;38.65
63819;BME280;49970;54.976;73.248;2023-04-29T12:55:34;100611.75;;;10.12;39.65
63819;BME280;49970;54.976;73.248;2023-04-29T12:58:02;100622.25;;;10.14;39.38
63819;BME280;49970;54.976;73.248;2023-04-29T13:00:49;100605.34;;;10.02;39.48
63819;BME280;49970;54.976;73.248;2023-04-29T13:03:15;100615.09;;;10.02;39.48
63819;BME280;49970;54.976;73.248;2023-04-29T13:05:41;100620.56;;;9.98;39.57
63819;BME280;49970;54.976;73.248;2023-04-29T13:08:10;100615.50;;;9.95;40.04
63819;BME280;49970;54.976;73.248;2023-04-29T13:10:37;100624.16;;;9.97;39.95
63819;BME280;49970;54.976;73.248;2023-04-29T13:13:03;100618.13;;;9.95;39.87
63819;BME280;49970;54.976;73.248;2023-04-29T13:15:29;100625.31;;;9.93;39.65
63819;BME280;49970;54.976;73.248;2023-04-29T13:17:55;100614.91;;;9.90;40.41
63819;BME280;49970;54.976;73.248;2023-04-29T13:20:33;100614.34;;;9.85;40.34
63819;BME280;49970;54.976;73.248;2023-04-29T13:23:00;100618.06;;;9.83;39.80
63819;BME280;49970;54.976;73.248;2023-04-29T13:25:26;100603.03;;;9.69;40.00
63819;BME280;49970;54.976;73.248;2023-04-29T13:27:58;100626.66;;;9.72;40.16
63819;BME280;49970;54.976;73.248;2023-04-29T13:30:24;100625.91;;;9.70;40.20
63819;BME280;49970;54.976;73.248;2023-04-29T13:32:59;100626.94;;;9.67;40.35
63819;BME280;49970;54.976;73.248;2023-04-29T13:35:25;100624.41;;;9.66;40.00
63819;BME280;49970;54.976;73.248;2023-04-29T13:37:52;100627.97;;;9.65;40.37
63819;BME280;49970;54.976;73.248;2023-04-29T13:40:18;100629.88;;;9.63;40.33
63819;BME280;49970;54.976;73.248;2023-04-29T13:42:44;100623.94;;;9.59;40.16
63819;BME280;49970;54.976;73.248;2023-04-29T13:45:11;100621.75;;;9.52;40.61
63819;BME280;49970;54.976;73.248;2023-04-29T13:47:37;100621.75;;;9.52;40.34
63819;BME280;49970;54.976;73.248;2023-04-29T13:50:03;100633.47;;;9.47;41.07
63819;BME280;49970;54.976;73.248;2023-04-29T13:52:30;100632.91;;;9.42;40.35
63819;BME280;49970;54.976;73.248;2023-04-29T13:54:56;100637.41;;;9.40;41.16
63819;BME280;49970;54.976;73.248;2023-04-29T13:57:27;100631.38;;;9.38;41.26
63819;BME280;49970;54.976;73.248;2023-04-29T13:59:53;100627.06;;;9.37;41.26
63819;BME280;49970;54.976;73.248;2023-04-29T14:02:25;100634.41;;;9.32;40.91
63819;BME280;49970;54.976;73.248;2023-04-29T14:04:52;100633.75;;;9.29;41.68
63819;BME280;49970;54.976;73.248;2023-04-29T14:07:18;100635.63;;;9.27;41.52
63819;BME280;49970;54.976;73.248;2023-04-29T14:09:44;100635.91;;;9.22;41.39
63819;BME280;49970;54.976;73.248;2023-04-29T14:12:11;100633.44;;;9.19;41.49
63819;BME280;49970;54.976;73.248;2023-04-29T14:14:37;100638.81;;;9.17;41.81
63819;BME280;49970;54.976;73.248;2023-04-29T14:17:03;100633.72;;;9.14;41.64
63819;BME280;49970;54.976;73.248;2023-04-29T14:19:30;100639.38;;;9.08;41.52
63819;BME280;49970;54.976;73.248;2023-04-29T14:22:07;100644.00;;;9.05;41.55
63819;BME280;49970;54.976;73.248;2023-04-29T14:24:33;100644.28;;;9.00;41.38
63819;BME280;49970;54.976;73.248;2023-04-29T14:26:59;100633.47;;;8.89;41.99
63819;BME280;49970;54.976;73.248;2023-04-29T14:29:27;100645.66;;;8.91;41.78
63819;BME280;49970;54.976;73.248;2023-04-29T14:31:54;100646.69;;;8.89;41.91
63819;BME280;49970;54.976;73.248;2023-04-29T14:34:32;100652.81;;;8.89;42.25
63819;BME280;49970;54.976;73.248;2023-04-29T14:36:58;100651.22;;;8.87;42.07
63819;BME280;49970;54.976;73.248;2023-04-29T14:39:24;100653.09;;;8.85;42.47
63819;BME280;49970;54.976;73.248;2023-04-29T14:41:51;100657.63;;;8.83;42.30
63819;BME280;49970;54.976;73.248;2023-04-29T14:44:18;100661.44;;;8.77;42.50
63819;BME280;49970;54.976;73.248;2023-04-29T14:46:44;100662.56;;;8.73;42.30
63819;BME280;49970;54.976;73.248;2023-04-29T14:49:10;100650.00;;;8.62;42.83
63819;BME280;49970;54.976;73.248;2023-04-29T14:51:36;100670.50;;;8.73;42.56
63819;BME280;49970;54.976;73.248;2023-04-29T14:54:03;100676.63;;;8.73;42.59
63819;BME280;49970;54.976;73.248;2023-04-29T14:56:29;100672.47;;;8.69;42.77
63819;BME280;49970;54.976;73.248;2023-04-29T14:58:55;100648.06;;;8.50;42.52
63819;BME280;49970;54.976;73.248;2023-04-29T15:01:21;100683.66;;;8.59;43.16
63819;BME280;49970;54.976;73.248;2023-04-29T15:03:57;100681.34;;;8.53;42.98
63819;BME280;49970;54.976;73.248;2023-04-29T15:06:24;100685.88;;;8.51;43.04
63819;BME280;49970;54.976;73.248;2023-04-29T15:08:52;100686.88;;;8.48;43.45
63819;BME280;49970;54.976;73.248;2023-04-29T15:11:18;100686.22;;;8.44;43.91